Pagina principale
METAR-TAF:

METAR-TAF

Aeroporti :

Aeroporto di Cervia-Pisignano

Cervia, Italia

latitudine: 44-13N, longitudine: 012-18E, altezza: 6 m

Osservazione

Il bollettino è stato emesso 1 ora e 13 minuti fa, alle 08:55 UTC
Vento 9 kt da ovest
Temperature 4°C
Umidità 87%
Pressione 1021 hPa
Visibilità 10 km o più
Cielo coperto ad un'altezza di 3500 ft

METAR: LIPC 180855Z 27009KT 9999 OVC035 04/02 Q1021 RMK OVC VIS MIN 9999 WIND THR11 26007KT WIND THR29 28007KT BLU

Ora: 11:08 (10:08 UTC)

Previsione

Il bollettino è stato emesso 2 ore e 8 minuti fa, alle 08:00 UTC
Previsione valida dal 18 alle 09 UTC al 18 alle 18 UTC
Vento 10 kt da nord/nord-est
Visibilità 10 km o più
Nuvoloso ad un'altezza di 4000 ft
Temporaneamente
dal 18 alle 09 UTC al 18 alle 12 UTC
Vento 15 kt da nord-est con raffiche fino a 27 kt
Visibilità: 5000 m
pioggia

TAF: LIPC 180800Z 1809/1818 02010KT 9999 BKN040 TEMPO 1809/1812 05015G27KT 5000 RA

Osservazioni e previsioni meteorologiche di più di 4000 aeroporti (messaggi METAR e TAF).

Le stazioni disponibili sono rappresentate dai dischi gialli e rossi sulla carta.

Puntare il mouse per vedere il nome della stazione.

Clicca sopra per visualizzare le osservazioni e previsioni meteorologiche.

Per cambiare la mappa : fare clic sui pulsanti verdi con una croce nera per ingrandire, il pulsante verde con un trattino per diminuire, o sulla freccia verde per le mappe adiacenti.


METAR-TAF: